Time;durP1;ratioP1;P1;durP2;ratioP2;P2;SDS_P1;SDS_P2;PMS_P1;PMS_P2;Temp;Humidity;BMP_temperature;BMP_pressure;BME280_temperature;BME280_humidity;BME280_pressure;Samples;Min_cycle;Max_cycle;Signal;HPM_P1;HPM_P2
2023/03/06 00:00:38;;;;;;;5.95;2.60;;;;;;;3.83;100.00;100830.94;4988844;28;20054;-68
2023/03/06 00:03:05;;;;;;;4.15;2.20;;;;;;;3.85;100.00;100826.50;4976226;28;20054;-68
2023/03/06 00:05:31;;;;;;;4.65;2.63;;;;;;;3.79;100.00;100826.91;4979575;28;20050;-68
2023/03/06 00:07:58;;;;;;;3.67;2.30;;;;;;;3.81;100.00;100832.00;4994976;28;20057;-68
2023/03/06 00:10:27;;;;;;;5.60;2.42;;;;;;;3.79;100.00;100826.91;4986885;28;20057;-68
2023/03/06 00:12:56;;;;;;;4.18;2.22;;;;;;;3.74;100.00;100824.63;4994612;28;20101;-68
2023/03/06 00:15:24;;;;;;;7.82;2.50;;;;;;;3.71;100.00;100817.03;4983034;28;20142;-68
2023/03/06 00:17:52;;;;;;;5.10;2.58;;;;;;;3.68;100.00;100809.44;4996954;28;20126;-68
2023/03/06 00:20:19;;;;;;;5.35;2.13;;;;;;;3.60;100.00;100803.13;4989938;28;20073;-68
2023/03/06 00:22:46;;;;;;;6.82;2.88;;;;;;;3.54;100.00;100812.94;4989040;28;20046;-68
2023/03/06 00:25:18;;;;;;;4.05;2.90;;;;;;;3.62;100.00;100811.63;4994921;28;20058;-68
2023/03/06 00:27:44;;;;;;;5.20;2.97;;;;;;;3.60;100.00;100800.53;4975866;28;20048;-68
2023/03/06 00:30:14;;;;;;;5.00;2.90;;;;;;;3.60;100.00;100800.53;4988112;28;20718;-68
2023/03/06 00:32:41;;;;;;;9.43;5.97;;;;;;;3.56;100.00;100805.91;4979231;28;20054;-68
2023/03/06 00:35:08;;;;;;;5.35;3.38;;;;;;;3.55;100.00;100803.44;4985452;28;20149;-68
2023/03/06 00:37:35;;;;;;;5.75;3.08;;;;;;;3.54;100.00;100802.56;4991419;28;20480;-68
2023/03/06 00:40:06;;;;;;;6.47;2.95;;;;;;;3.55;100.00;100798.25;4980402;28;20700;-68
2023/03/06 00:42:33;;;;;;;6.32;2.90;;;;;;;3.52;100.00;100798.44;4991352;28;20061;-68
2023/03/06 00:44:59;;;;;;;8.30;2.88;;;;;;;3.46;100.00;100796.25;4981997;28;20464;-68
2023/03/06 00:47:26;;;;;;;5.75;2.90;;;;;;;3.52;100.00;100798.44;4987525;28;20474;-68
2023/03/06 00:49:53;;;;;;;6.45;3.10;;;;;;;3.45;100.00;100791.97;4982870;28;20136;-68
2023/03/06 00:52:19;;;;;;;5.30;3.00;;;;;;;3.44;100.00;100790.34;4991738;28;20132;-68
2023/03/06 00:54:46;;;;;;;6.38;3.10;;;;;;;3.36;100.00;100785.66;4987806;28;20566;-68
2023/03/06 00:57:12;;;;;;;7.55;3.50;;;;;;;3.30;100.00;100779.09;4977353;28;20053;-68
2023/03/06 00:59:39;;;;;;;8.68;3.35;;;;;;;3.29;100.00;100774.88;4989424;28;20054;-68
2023/03/06 01:02:05;;;;;;;3.72;2.88;;;;;;;3.23;100.00;100772.63;4980190;28;20050;-68
2023/03/06 01:04:32;;;;;;;7.53;3.40;;;;;;;3.26;100.00;100774.22;4972725;28;20170;-68
2023/03/06 01:06:58;;;;;;;4.57;3.40;;;;;;;3.20;100.00;100770.28;4980595;28;20105;-68
2023/03/06 01:09:25;;;;;;;6.03;3.35;;;;;;;3.21;100.00;100771.09;4983636;28;20077;-68
2023/03/06 01:11:51;;;;;;;7.97;3.40;;;;;;;3.19;100.00;100773.78;4993274;28;20053;-68
2023/03/06 01:14:18;;;;;;;4.57;2.83;;;;;;;3.15;100.00;100767.97;4981425;28;20073;-68
2023/03/06 01:16:45;;;;;;;6.93;3.65;;;;;;;3.18;100.00;100764.34;4998027;28;20038;-68
2023/03/06 01:19:12;;;;;;;6.60;3.90;;;;;;;3.18;100.00;100761.75;4982283;28;20416;-68
2023/03/06 01:21:38;;;;;;;9.23;3.85;;;;;;;3.17;100.00;100758.34;4989736;28;20058;-68
2023/03/06 01:24:05;;;;;;;5.32;3.45;;;;;;;3.10;100.00;100748.47;4990452;28;20070;-68
2023/03/06 01:26:32;;;;;;;5.15;3.45;;;;;;;3.06;100.00;100739.22;4986631;28;20172;-68
2023/03/06 01:28:59;;;;;;;6.20;3.60;;;;;;;2.90;100.00;100732.47;4989132;28;20057;-68
2023/03/06 01:31:25;;;;;;;5.35;3.47;;;;;;;2.86;100.00;100718.03;4984281;28;20160;-67
2023/03/06 01:33:52;;;;;;;5.90;3.65;;;;;;;2.77;100.00;100714.28;5003717;28;20486;-68
2023/03/06 01:36:19;;;;;;;4.85;3.33;;;;;;;2.84;100.00;100729.41;4991570;28;20100;-68
2023/03/06 01:38:45;;;;;;;10.80;5.80;;;;;;;2.87;100.00;100729.22;4988859;28;20042;-66
2023/03/06 01:41:14;;;;;;;10.00;5.07;;;;;;;2.91;100.00;100731.50;4979738;28;20434;-66
2023/03/06 01:43:43;;;;;;;9.73;4.35;;;;;;;2.93;100.00;100726.25;4976753;28;20064;-66
2023/03/06 01:46:25;;;;;;;6.20;3.83;;;;;;;2.92;100.00;100725.41;4994951;28;20585;-68
2023/03/06 01:48:55;;;;;;;7.43;4.65;;;;;;;2.82;100.00;100724.31;4985656;28;20057;-66
2023/03/06 01:51:26;;;;;;;8.27;5.20;;;;;;;2.79;100.00;100721.94;4987902;28;20408;-68
2023/03/06 01:53:53;;;;;;;8.43;5.13;;;;;;;2.85;100.00;100713.78;4982999;28;20050;-66
2023/03/06 01:56:20;;;;;;;7.90;5.38;;;;;;;2.91;100.00;100713.38;4984878;28;20054;-68
2023/03/06 01:58:48;;;;;;;7.70;5.13;;;;;;;2.92;100.00;100704.69;4988201;28;20054;-66
2023/03/06 02:01:16;;;;;;;9.27;6.10;;;;;;;2.93;100.00;100706.34;4989305;28;20058;-66
2023/03/06 02:03:43;;;;;;;9.15;5.45;;;;;;;2.91;100.00;100700.41;4993743;28;20534;-66
2023/03/06 02:06:09;;;;;;;11.70;6.82;;;;;;;2.93;100.00;100702.91;4984545;28;20061;-67
2023/03/06 02:08:36;;;;;;;10.57;7.13;;;;;;;2.89;100.00;100704.06;5000519;28;20066;-66
2023/03/06 02:11:18;;;;;;;12.23;7.55;;;;;;;2.87;100.00;100709.31;4983102;28;20061;-66
2023/03/06 02:13:46;;;;;;;14.27;9.18;;;;;;;2.81;100.00;100708.91;4995314;28;20076;-67
2023/03/06 02:16:15;;;;;;;13.55;8.93;;;;;;;2.79;100.00;100713.34;4988089;28;20054;-66
2023/03/06 02:18:42;;;;;;;;;;;;;;;2.83;100.00;100713.03;4994785;28;20041;-66
2023/03/06 02:21:19;;;;;;;14.45;9.30;;;;;;;2.81;100.00;100701.97;4992735;28;19925;-66
2023/03/06 02:24:23;;;;;;;15.85;10.13;;;;;;;2.74;100.00;100709.31;4981600;28;20054;-68
2023/03/06 02:26:51;;;;;;;16.88;10.25;;;;;;;2.70;100.00;100707.00;4990115;28;20510;-66
2023/03/06 02:29:24;;;;;;;16.80;11.48;;;;;;;2.73;100.00;100701.63;4988796;28;20065;-66
2023/03/06 02:31:51;;;;;;;16.80;10.57;;;;;;;2.69;100.00;100694.97;4982973;28;20275;-66
2023/03/06 02:34:17;;;;;;;16.55;11.05;;;;;;;2.70;100.00;100696.63;4984870;28;20053;-68
2023/03/06 02:36:47;;;;;;;15.13;10.85;;;;;;;2.73;100.00;100693.84;4993188;28;20060;-68
2023/03/06 02:39:16;;;;;;;17.23;11.52;;;;;;;2.68;100.00;100691.53;4972982;28;20073;-67
2023/03/06 02:41:43;;;;;;;18.40;11.60;;;;;;;2.67;100.00;100692.47;4993278;28;20113;-66
2023/03/06 02:44:09;;;;;;;17.48;11.63;;;;;;;2.64;100.00;100697.84;5000760;28;20058;-66
2023/03/06 02:46:36;;;;;;;17.83;11.90;;;;;;;2.54;100.00;100697.59;4980167;28;20050;-67
2023/03/06 02:49:02;;;;;;;18.30;12.10;;;;;;;2.52;100.00;100690.88;4989454;28;20058;-66
2023/03/06 02:51:29;;;;;;;19.15;12.15;;;;;;;2.49;100.00;100683.28;4988300;28;20073;-66
2023/03/06 02:53:55;;;;;;;19.35;11.93;;;;;;;2.49;100.00;100678.09;4997416;28;20057;-67
2023/03/06 02:56:22;;;;;;;21.27;13.02;;;;;;;2.44;100.00;100675.81;4982846;28;21532;-67
2023/03/06 02:58:48;;;;;;;22.52;11.82;;;;;;;2.42;100.00;100674.25;5003610;28;20423;-66
2023/03/06 03:01:15;;;;;;;21.17;12.00;;;;;;;2.44;100.00;100672.41;4991492;28;20058;-67
2023/03/06 03:03:41;;;;;;;19.25;12.43;;;;;;;2.39;100.00;100672.69;4978837;28;20054;-66
2023/03/06 03:06:08;;;;;;;22.13;12.70;;;;;;;2.42;100.00;100666.50;4991645;28;20072;-66
2023/03/06 03:08:35;;;;;;;19.65;12.38;;;;;;;2.46;100.00;100658.44;4982927;28;20568;-67
2023/03/06 03:11:02;;;;;;;21.38;12.80;;;;;;;2.45;100.00;100655.94;4986396;28;20396;-66
2023/03/06 03:13:29;;;;;;;21.58;13.80;;;;;;;2.40;100.00;100648.47;4987849;28;20049;-66
2023/03/06 03:16:01;;;;;;;20.98;12.27;;;;;;;2.43;100.00;100653.47;4992450;28;20069;-66
2023/03/06 03:18:27;;;;;;;22.15;13.15;;;;;;;2.37;100.00;100652.09;4988278;28;20491;-66
2023/03/06 03:20:54;;;;;;;19.52;11.88;;;;;;;2.44;100.00;100642.16;4985376;28;21269;-66
2023/03/06 03:23:21;;;;;;;18.08;11.98;;;;;;;2.46;100.00;100635.13;4983503;28;20054;-67
2023/03/06 03:25:48;;;;;;;18.98;12.27;;;;;;;2.44;100.00;100637.00;4969594;28;20109;-66
2023/03/06 03:28:15;;;;;;;20.55;11.73;;;;;;;2.44;100.00;100637.00;4991193;28;20570;-66
2023/03/06 03:30:42;;;;;;;19.48;12.50;;;;;;;2.45;100.00;100624.88;4985786;28;20707;-66
2023/03/06 03:33:08;;;;;;;19.00;12.45;;;;;;;2.44;100.00;100624.03;4986225;28;20189;-66
2023/03/06 03:35:35;;;;;;;19.08;12.18;;;;;;;2.43;100.00;100621.53;4995292;28;20629;-66
2023/03/06 03:38:02;;;;;;;20.10;12.77;;;;;;;2.41;100.00;100618.22;4972849;28;20052;-66
2023/03/06 03:40:28;;;;;;;19.10;12.15;;;;;;;2.39;100.00;100613.13;4993717;28;20061;-66
2023/03/06 03:42:55;;;;;;;19.10;12.50;;;;;;;2.31;100.00;100607.63;4977563;28;20448;-66
2023/03/06 03:45:22;;;;;;;19.83;12.10;;;;;;;2.30;100.00;100603.41;4989204;28;20053;-66
2023/03/06 03:47:48;;;;;;;18.02;12.23;;;;;;;2.26;100.00;100597.59;4950729;28;20050;-66
2023/03/06 03:50:15;;;;;;;17.67;10.82;;;;;;;2.25;100.00;100601.09;4985602;28;20483;-66
2023/03/06 03:52:41;;;;;;;18.38;10.65;;;;;;;2.28;100.00;100600.06;4982807;28;20058;-66
2023/03/06 03:55:08;;;;;;;16.20;10.35;;;;;;;2.31;100.00;100599.88;4989491;28;20060;-67
2023/03/06 03:57:34;;;;;;;15.23;10.32;;;;;;;2.31;100.00;100603.31;4998881;28;20053;-67
2023/03/06 04:00:01;;;;;;;17.65;10.25;;;;;;;2.26;100.00;100589.81;4979300;28;20050;-66
2023/03/06 04:02:27;;;;;;;13.82;9.57;;;;;;;2.29;100.00;100596.53;4985445;28;20061;-67
2023/03/06 04:04:54;;;;;;;14.73;9.50;;;;;;;2.34;100.00;100599.69;4991634;28;20049;-67
2023/03/06 04:07:20;;;;;;;16.75;9.80;;;;;;;2.31;100.00;100592.09;4989115;28;20057;-67
2023/03/06 04:09:47;;;;;;;14.10;9.88;;;;;;;2.31;100.00;100589.50;4989276;28;20053;-66
2023/03/06 04:12:14;;;;;;;15.73;10.23;;;;;;;2.34;100.00;100584.97;4980402;28;20137;-66
2023/03/06 04:14:40;;;;;;;13.85;9.45;;;;;;;2.34;100.00;100586.75;4992805;28;20092;-66
2023/03/06 04:17:07;;;;;;;15.52;9.20;;;;;;;2.33;100.00;100583.31;4980076;28;20050;-66
2023/03/06 04:19:33;;;;;;;16.55;10.15;;;;;;;2.33;100.00;100575.56;4990111;28;20343;-66
2023/03/06 04:22:01;;;;;;;16.45;10.13;;;;;;;2.40;100.00;100575.97;4983307;28;20661;-67
2023/03/06 04:24:27;;;;;;;14.57;8.85;;;;;;;2.40;100.00;100580.34;4985582;28;20054;-67
2023/03/06 04:26:54;;;;;;;14.00;8.55;;;;;;;2.37;100.00;100568.41;4968513;28;20054;-67
2023/03/06 04:29:20;;;;;;;15.25;9.40;;;;;;;2.28;100.00;100576.78;4975920;28;20065;-67
2023/03/06 04:31:47;;;;;;;15.18;10.90;;;;;;;2.26;100.00;100569.13;4980477;28;20133;-66
2023/03/06 04:34:13;;;;;;;15.15;9.90;;;;;;;2.27;100.00;100569.94;4979253;28;20519;-67
2023/03/06 04:36:43;;;;;;;15.38;10.60;;;;;;;2.22;100.00;100572.00;4986262;28;20054;-67
2023/03/06 04:39:11;;;;;;;15.55;9.20;;;;;;;2.31;100.00;100572.25;4983464;28;20487;-66
2023/03/06 04:41:39;;;;;;;14.63;9.13;;;;;;;2.29;100.00;100573.25;4986257;28;20073;-66
2023/03/06 04:44:06;;;;;;;15.23;9.23;;;;;;;2.33;100.00;100569.53;4991680;28;20053;-66
2023/03/06 04:46:33;;;;;;;14.70;9.35;;;;;;;2.41;100.00;100556.09;4989719;28;20047;-67
2023/03/06 04:49:00;;;;;;;17.50;10.25;;;;;;;2.39;100.00;100561.38;4987892;28;20047;-67
2023/03/06 04:51:27;;;;;;;15.18;9.43;;;;;;;2.33;100.00;100560.03;4978885;28;20284;-67
2023/03/06 04:53:53;;;;;;;16.52;10.45;;;;;;;2.31;100.00;100558.44;4991457;28;20056;-68
2023/03/06 04:56:20;;;;;;;17.15;10.25;;;;;;;2.32;100.00;100553.19;4982090;28;20117;-68
2023/03/06 04:58:46;;;;;;;18.00;10.60;;;;;;;2.28;100.00;100561.25;4987801;28;20065;-68
2023/03/06 05:01:13;;;;;;;16.63;9.57;;;;;;;2.28;100.00;100556.06;4976509;28;20057;-68
2023/03/06 05:03:39;;;;;;;18.48;10.77;;;;;;;2.31;100.00;100554.13;4973312;28;20084;-68
2023/03/06 05:06:06;;;;;;;16.98;9.55;;;;;;;2.33;100.00;100551.41;4989944;28;20077;-67
2023/03/06 05:08:32;;;;;;;14.32;9.15;;;;;;;2.37;100.00;100547.69;4994007;28;20057;-67
2023/03/06 05:11:00;;;;;;;15.70;10.32;;;;;;;2.38;100.00;100539.00;4992348;28;20753;-67
2023/03/06 05:13:27;;;;;;;15.43;9.97;;;;;;;2.41;100.00;100543.16;5004361;28;20049;-68
2023/03/06 05:15:54;;;;;;;17.30;9.32;;;;;;;2.38;100.00;100544.19;4978832;28;20050;-68
2023/03/06 05:18:20;;;;;;;18.00;10.13;;;;;;;2.45;100.00;100549.78;4985996;28;20427;-68
2023/03/06 05:20:47;;;;;;;18.50;10.68;;;;;;;2.46;100.00;100535.91;4984693;28;20054;-68
2023/03/06 05:23:13;;;;;;;18.48;9.52;;;;;;;2.50;100.00;100532.19;4985200;28;20050;-68
2023/03/06 05:25:40;;;;;;;15.32;9.07;;;;;;;2.47;100.00;100530.66;4983776;28;20058;-68
2023/03/06 05:28:07;;;;;;;16.92;10.00;;;;;;;2.43;100.00;100529.19;4992908;28;20054;-68
2023/03/06 05:30:33;;;;;;;15.23;9.00;;;;;;;2.40;100.00;100520.78;4987814;28;20542;-68
2023/03/06 05:33:00;;;;;;;16.45;9.25;;;;;;;2.34;100.00;100527.19;4981017;28;20094;-68
2023/03/06 05:35:26;;;;;;;16.10;9.23;;;;;;;2.41;100.00;100522.44;4991502;28;20065;-68
2023/03/06 05:37:53;;;;;;;16.45;9.40;;;;;;;2.28;100.00;100520.66;4982717;28;20046;-68
2023/03/06 05:40:20;;;;;;;11.57;7.05;;;;;;;2.29;100.00;100519.72;4986863;28;20482;-68
2023/03/06 05:42:46;;;;;;;16.00;8.18;;;;;;;2.30;100.00;100520.56;4987950;28;20049;-68
2023/03/06 05:45:13;;;;;;;14.02;8.38;;;;;;;2.25;100.00;100523.44;4983246;28;20050;-68
2023/03/06 05:47:39;;;;;;;16.08;9.10;;;;;;;2.32;100.00;100519.53;4988105;28;20061;-68
2023/03/06 05:50:07;;;;;;;19.08;9.27;;;;;;;2.28;100.00;100520.66;4984636;28;20574;-68
2023/03/06 05:52:33;;;;;;;15.50;9.05;;;;;;;2.36;100.00;100517.56;4989787;28;20540;-68
2023/03/06 05:55:00;;;;;;;15.13;8.68;;;;;;;2.41;100.00;100509.50;4984043;28;20050;-68
2023/03/06 05:57:26;;;;;;;16.30;9.30;;;;;;;2.46;100.00;100513.44;4982726;28;20054;-68
2023/03/06 05:59:53;;;;;;;18.00;9.57;;;;;;;2.47;100.00;100516.84;4986288;28;20206;-69
2023/03/06 06:02:19;;;;;;;13.65;8.00;;;;;;;2.51;100.00;100507.94;4981769;28;20061;-68
2023/03/06 06:04:46;;;;;;;16.00;8.32;;;;;;;2.50;100.00;100514.91;4991777;28;20633;-68
2023/03/06 06:07:14;;;;;;;21.20;9.25;;;;;;;2.54;100.00;100511.16;4989267;28;20057;-68
2023/03/06 06:09:42;;;;;;;15.00;7.95;;;;;;;2.50;100.00;100512.31;4988533;28;20052;-68
2023/03/06 06:12:08;;;;;;;14.80;7.47;;;;;;;2.52;100.00;100515.63;4973581;28;20054;-68
2023/03/06 06:14:35;;;;;;;18.60;8.30;;;;;;;2.53;100.00;100519.06;4995594;28;20960;-68
2023/03/06 06:17:01;;;;;;;13.27;7.25;;;;;;;2.51;100.00;100519.16;4982125;28;20061;-68
2023/03/06 06:19:29;;;;;;;14.00;7.93;;;;;;;2.62;100.00;100515.00;4997182;28;20046;-68
2023/03/06 06:21:56;;;;;;;12.90;7.33;;;;;;;2.60;100.00;100506.53;4982674;28;20105;-68
2023/03/06 06:24:25;;;;;;;11.93;7.25;;;;;;;2.63;100.00;100506.31;4972940;28;20793;-68
2023/03/06 06:26:54;;;;;;;14.75;7.45;;;;;;;2.60;100.00;100509.94;4988888;28;20057;-68
2023/03/06 06:29:21;;;;;;;12.25;7.18;;;;;;;2.50;100.00;100511.47;4986144;28;20138;-68
2023/03/06 06:31:49;;;;;;;12.73;6.85;;;;;;;2.59;100.00;100505.69;4986261;28;20050;-68
2023/03/06 06:34:15;;;;;;;13.75;8.40;;;;;;;2.54;100.00;100505.16;4977681;28;20105;-68
2023/03/06 06:36:42;;;;;;;11.65;7.88;;;;;;;2.61;100.00;100505.56;4985271;28;20055;-68
2023/03/06 06:39:12;;;;;;;10.88;6.38;;;;;;;2.64;100.00;100506.19;4991367;28;20057;-68
2023/03/06 06:41:39;;;;;;;11.98;6.65;;;;;;;2.67;100.00;100505.19;4959913;28;20057;-68
2023/03/06 06:44:25;;;;;;;14.13;6.60;;;;;;;2.67;100.00;100502.59;4982233;28;20088;-68
2023/03/06 06:46:52;;;;;;;11.60;7.00;;;;;;;2.70;100.00;100505.78;4981846;28;20053;-68
2023/03/06 06:49:39;;;;;;;9.32;6.43;;;;;;;2.72;100.00;100505.69;4965404;28;20123;-68
2023/03/06 06:52:06;;;;;;;10.65;6.70;;;;;;;2.77;100.00;100501.03;4973166;28;20448;-68
2023/03/06 06:54:33;;;;;;;11.65;7.78;;;;;;;2.74;100.00;100509.84;4989025;28;20478;-68
2023/03/06 06:57:00;;;;;;;12.73;6.57;;;;;;;2.77;100.00;100507.03;4989861;28;20054;-68
2023/03/06 06:59:26;;;;;;;12.07;7.60;;;;;;;2.85;100.00;100510.88;4979926;28;20053;-68
2023/03/06 07:01:53;;;;;;;11.88;7.68;;;;;;;2.87;100.00;100516.78;4986893;28;20468;-68
2023/03/06 07:04:19;;;;;;;10.88;7.28;;;;;;;2.88;100.00;100521.03;4984460;28;20101;-68
2023/03/06 07:06:46;;;;;;;10.52;7.05;;;;;;;2.93;100.00;100519.78;4970850;28;20491;-68
2023/03/06 07:09:13;;;;;;;12.75;6.82;;;;;;;2.92;100.00;100525.06;4988358;28;20495;-68
2023/03/06 07:11:40;;;;;;;11.82;7.47;;;;;;;2.92;100.00;100515.53;4989244;28;20519;-68
2023/03/06 07:14:06;;;;;;;13.15;7.82;;;;;;;2.95;100.00;100517.91;4988441;28;20496;-68
2023/03/06 07:16:33;;;;;;;10.00;7.05;;;;;;;3.02;100.00;100514.91;4983310;28;20423;-68
2023/03/06 07:18:59;;;;;;;10.50;6.43;;;;;;;3.03;100.00;100516.56;4990015;28;20137;-68
2023/03/06 07:21:26;;;;;;;13.07;7.13;;;;;;;3.05;100.00;100518.09;4979913;28;20062;-68
2023/03/06 07:23:53;;;;;;;13.63;7.32;;;;;;;3.11;100.00;100519.47;4985070;28;20507;-68
2023/03/06 07:26:19;;;;;;;9.88;7.07;;;;;;;3.14;100.00;100525.25;4985227;28;20089;-68
2023/03/06 07:28:48;;;;;;;9.68;6.88;;;;;;;3.11;100.00;100522.03;4989109;28;20509;-68
2023/03/06 07:31:20;;;;;;;9.65;6.25;;;;;;;3.18;100.00;100528.47;4979616;28;20053;-68
2023/03/06 07:33:51;;;;;;;10.07;6.03;;;;;;;3.29;100.00;100531.16;4982869;28;20116;-68
2023/03/06 07:36:18;;;;;;;11.43;6.70;;;;;;;3.29;100.00;100519.94;4992115;28;20104;-68
2023/03/06 07:38:44;;;;;;;9.13;6.43;;;;;;;3.28;100.00;100526.91;4994537;28;20141;-68
2023/03/06 07:41:12;;;;;;;10.02;6.75;;;;;;;3.35;100.00;100530.72;5000006;28;20695;-68
2023/03/06 07:43:40;;;;;;;12.07;6.95;;;;;;;3.32;100.00;100530.94;4989162;28;20101;-68
2023/03/06 07:46:07;;;;;;;8.88;5.97;;;;;;;3.34;100.00;100531.66;4980941;28;20419;-68
2023/03/06 07:48:35;;;;;;;9.50;6.45;;;;;;;3.35;100.00;100529.88;4996008;28;20427;-68
2023/03/06 07:51:05;;;;;;;7.47;5.75;;;;;;;3.33;100.00;100527.41;4990822;28;20041;-68
2023/03/06 07:53:32;;;;;;;10.05;5.68;;;;;;;3.44;100.00;100534.44;4986571;28;20060;-68
2023/03/06 07:55:59;;;;;;;9.32;5.07;;;;;;;3.44;100.00;100531.03;4977182;28;20045;-68
2023/03/06 07:58:26;;;;;;;9.35;5.38;;;;;;;3.53;100.00;100536.38;4980613;28;20054;-68
2023/03/06 08:00:52;;;;;;;6.78;3.67;;;;;;;3.56;100.00;100535.34;4985044;28;20509;-68
2023/03/06 08:03:19;;;;;;;6.88;4.63;;;;;;;3.64;100.00;100535.63;4983063;28;20141;-68
2023/03/06 08:05:45;;;;;;;9.32;5.72;;;;;;;3.72;100.00;100532.47;4987013;28;20105;-68
2023/03/06 08:08:12;;;;;;;6.93;5.32;;;;;;;3.71;100.00;100536.84;4967269;28;20061;-68
2023/03/06 08:10:38;;;;;;;5.65;4.38;;;;;;;3.81;100.00;100534.44;4990817;28;20050;-68
2023/03/06 08:13:05;;;;;;;7.97;4.78;;;;;;;3.83;100.00;100529.97;4973542;28;20511;-68
2023/03/06 08:15:31;;;;;;;5.47;3.50;;;;;;;3.90;100.00;100533.78;4988107;28;20053;-68
2023/03/06 08:17:58;;;;;;;6.30;3.50;;;;;;;4.00;100.00;100530.50;4983010;28;20061;-68
2023/03/06 08:20:24;;;;;;;5.78;3.45;;;;;;;4.07;100.00;100539.50;4994680;28;20058;-68
2023/03/06 08:22:51;;;;;;;6.38;3.47;;;;;;;4.13;100.00;100539.06;4986891;28;20077;-68
2023/03/06 08:25:17;;;;;;;4.60;3.00;;;;;;;4.12;100.00;100529.63;4981427;28;20597;-68
2023/03/06 08:27:46;;;;;;;5.72;2.75;;;;;;;4.09;100.00;100533.25;4989054;28;20050;-68
2023/03/06 08:30:12;;;;;;;4.30;2.90;;;;;;;4.13;100.00;100534.69;4984346;28;20439;-68
2023/03/06 08:32:39;;;;;;;5.18;2.75;;;;;;;4.08;100.00;100539.41;4983887;28;20160;-68
2023/03/06 08:35:06;;;;;;;6.05;3.00;;;;;;;4.21;100.00;100538.50;4985728;28;20156;-68
2023/03/06 08:37:33;;;;;;;3.33;2.30;;;;;;;4.27;100.00;100538.03;4996859;28;20085;-68
2023/03/06 08:40:03;;;;;;;3.35;1.90;;;;;;;4.38;100.00;100538.09;4983804;28;20050;-68
2023/03/06 08:42:31;;;;;;;3.30;1.70;;;;;;;4.50;100.00;100544.16;4974076;28;20495;-68
2023/03/06 08:44:57;;;;;;;2.03;1.40;;;;;;;4.51;100.00;100541.44;4976907;28;20092;-68
2023/03/06 08:47:24;;;;;;;4.00;1.42;;;;;;;4.61;100.00;100545.97;4978200;28;20058;-68
2023/03/06 08:49:50;;;;;;;2.47;1.63;;;;;;;4.65;100.00;100549.97;4999705;28;20085;-68
2023/03/06 08:52:18;;;;;;;3.72;1.42;;;;;;;4.73;100.00;100556.25;4973777;28;20061;-68
2023/03/06 08:54:45;;;;;;;3.13;1.42;;;;;;;4.83;100.00;100558.97;4949777;28;20265;-69
2023/03/06 08:57:12;;;;;;;3.00;1.35;;;;;;;4.95;100.00;100552.84;4977744;28;20053;-68
2023/03/06 08:59:38;;;;;;;1.77;1.45;;;;;;;4.93;100.00;100553.91;4985840;28;20068;-68
2023/03/06 09:02:06;;;;;;;3.00;1.55;;;;;;;5.04;100.00;100550.53;4986067;28;20518;-68
2023/03/06 09:04:33;;;;;;;2.50;1.30;;;;;;;5.07;100.00;100545.88;4989892;28;20085;-68
2023/03/06 09:07:00;;;;;;;1.40;1.00;;;;;;;5.09;100.00;100545.78;4988860;28;20133;-68
2023/03/06 09:09:26;;;;;;;2.90;1.20;;;;;;;5.13;100.00;100545.41;4958528;28;20065;-68
2023/03/06 09:11:53;;;;;;;1.48;1.00;;;;;;;5.19;100.00;100543.28;4977670;28;20065;-67
2023/03/06 09:14:20;;;;;;;2.00;1.00;;;;;;;5.24;100.00;100543.78;4985375;28;20061;-68
2023/03/06 09:16:46;;;;;;;2.25;1.10;;;;;;;5.23;100.00;100540.34;4990871;28;20053;-68
2023/03/06 09:19:13;;;;;;;1.50;1.00;;;;;;;5.19;100.00;100543.28;4988826;28;20046;-69
2023/03/06 09:21:40;;;;;;;1.40;0.93;;;;;;;5.21;100.00;100541.41;4975744;28;20050;-68
2023/03/06 09:24:07;;;;;;;2.67;0.88;;;;;;;5.25;100.00;100535.88;4989025;28;20134;-68
2023/03/06 09:26:33;;;;;;;2.05;1.02;;;;;;;5.24;100.00;100534.19;4982349;28;20766;-68
2023/03/06 09:29:17;;;;;;;1.65;1.00;;;;;;;5.30;100.00;100531.13;4990885;28;20054;-69
2023/03/06 09:31:44;;;;;;;1.98;0.85;;;;;;;5.40;100.00;100541.63;4991587;28;21018;-68
2023/03/06 09:34:11;;;;;;;2.28;0.93;;;;;;;5.41;100.00;100535.50;4988856;28;20558;-69
2023/03/06 09:36:37;;;;;;;1.55;0.60;;;;;;;5.46;100.00;100537.72;4982689;28;20058;-68
2023/03/06 09:39:21;;;;;;;0.98;0.77;;;;;;;5.48;100.00;100534.06;4985415;28;20045;-68
2023/03/06 09:41:49;;;;;;;1.95;0.95;;;;;;;5.50;100.00;100536.53;4992910;28;20053;-68
2023/03/06 09:44:21;;;;;;;1.60;1.10;;;;;;;5.51;100.00;100535.59;4984934;28;20122;-68
2023/03/06 09:47:09;;;;;;;1.10;0.88;;;;;;;5.51;100.00;100539.03;4994657;28;20046;-68
2023/03/06 09:49:45;;;;;;;0.82;0.80;;;;;;;5.43;99.54;100535.34;4974960;28;20093;-68
2023/03/06 09:52:11;;;;;;;1.35;1.00;;;;;;;5.54;100.00;100533.56;4998490;28;20475;-68
2023/03/06 09:54:46;;;;;;;1.15;0.80;;;;;;;5.60;97.03;100540.06;4991115;28;20510;-68
2023/03/06 09:57:20;;;;;;;1.38;0.70;;;;;;;5.63;97.26;100537.22;4986631;28;20525;-68
2023/03/06 09:59:50;;;;;;;1.25;0.70;;;;;;;5.69;100.00;100544.53;4996115;28;20411;-68
2023/03/06 10:02:25;;;;;;;0.73;0.68;;;;;;;5.81;100.00;100544.53;4964062;28;20065;-68
2023/03/06 10:05:00;;;;;;;0.60;0.52;;;;;;;5.89;95.69;100542.13;4983751;28;20468;-68
2023/03/06 10:07:49;;;;;;;1.48;0.60;;;;;;;6.01;93.07;100543.78;4982523;28;20054;-68
2023/03/06 10:10:23;;;;;;;0.65;0.60;;;;;;;6.12;91.84;100542.94;4987164;28;20054;-69
2023/03/06 10:13:04;;;;;;;0.95;0.55;;;;;;;6.05;86.99;100545.19;4989024;28;20506;-68
2023/03/06 10:15:37;;;;;;;1.42;0.70;;;;;;;6.12;91.04;100542.94;4997738;28;20050;-68
2023/03/06 10:18:04;;;;;;;0.60;0.60;;;;;;;6.16;91.60;100546.94;4983675;28;20570;-68
2023/03/06 10:20:43;;;;;;;0.60;0.60;;;;;;;6.30;86.49;100549.22;4992048;28;20496;-68
2023/03/06 10:23:23;;;;;;;1.20;0.40;;;;;;;6.48;85.03;100543.47;4973962;28;20411;-68
2023/03/06 10:25:52;;;;;;;1.08;0.50;;;;;;;6.62;87.32;100550.97;4985332;28;20133;-69
2023/03/06 10:28:26;;;;;;;0.65;0.60;;;;;;;6.77;83.25;100541.03;4984900;28;20046;-68
2023/03/06 10:31:02;;;;;;;2.05;0.50;;;;;;;6.89;80.33;100542.63;4981289;28;20050;-69
2023/03/06 10:33:42;;;;;;;0.60;0.60;;;;;;;7.02;81.76;100539.00;4990689;28;20578;-69
2023/03/06 10:36:15;;;;;;;0.60;0.50;;;;;;;7.08;72.71;100541.88;4974272;28;20422;-67
2023/03/06 10:38:43;;;;;;;2.20;0.60;;;;;;;7.15;74.59;100536.16;4992862;28;20057;-68
2023/03/06 10:41:10;;;;;;;0.50;0.50;;;;;;;7.27;79.75;100540.31;4976914;28;20056;-68
2023/03/06 10:43:42;;;;;;;0.60;0.60;;;;;;;7.40;76.59;100551.34;4991294;28;20631;-68
2023/03/06 10:46:11;;;;;;;1.15;0.65;;;;;;;7.25;69.41;100543.06;4989861;28;20046;-68
2023/03/06 10:48:40;;;;;;;1.05;0.60;;;;;;;7.48;75.63;100540.25;4983104;28;20042;-68
2023/03/06 10:51:20;;;;;;;0.95;0.60;;;;;;;7.38;66.36;100537.59;4992778;28;20038;-68
2023/03/06 10:53:54;;;;;;;1.40;0.50;;;;;;;7.51;67.68;100538.19;4986193;28;20572;-68
2023/03/06 10:56:39;;;;;;;1.23;0.60;;;;;;;7.71;70.51;100535.63;4973868;28;20054;-69
2023/03/06 10:59:15;;;;;;;0.75;0.60;;;;;;;7.90;72.14;100535.66;4988823;28;20056;-68
2023/03/06 11:01:44;;;;;;;0.82;0.40;;;;;;;8.06;69.27;100537.72;4990672;28;20050;-68
2023/03/06 11:04:28;;;;;;;;;;;;;;;8.29;69.22;100540.91;4966029;28;20100;-69
2023/03/06 11:07:05;;;;;;;2.28;0.63;;;;;;;8.16;61.16;100544.75;4981430;28;19956;-69
2023/03/06 11:09:33;;;;;;;1.80;0.60;;;;;;;8.23;63.47;100546.69;4997474;28;20777;-68
2023/03/06 11:12:32;;;;;;;0.30;0.30;;;;;;;8.10;61.56;100536.50;4990828;28;20464;-69
2023/03/06 11:15:05;;;;;;;1.23;0.60;;;;;;;8.23;62.77;100535.38;4993764;28;20549;-69
2023/03/06 11:17:34;;;;;;;1.38;0.50;;;;;;;8.44;64.02;100530.03;4984298;28;20081;-68
2023/03/06 11:20:22;;;;;;;0.55;0.50;;;;;;;8.24;58.10;100531.81;5002297;28;20038;-69
2023/03/06 11:23:02;;;;;;;;;;;;;;;8.42;61.08;100529.38;4966409;28;20034;-69
2023/03/06 11:25:52;;;;;;;1.65;0.70;;;;;;;8.51;60.89;100525.91;4993886;28;19927;-68
2023/03/06 11:28:28;;;;;;;1.48;0.60;;;;;;;8.46;61.35;100534.16;4982822;28;20141;-68